Waynesville, NC (28786)

10:44 AM EDT on May 29, 2015 (GMT -0400)
Utah Mountain Rockface | | Change Station
CLOSE
Current Station
Personal Weather Station
Location: Waynesville, NC
Elevation: 3500 ft
Nearby Weather Stations

Elev 3500 ft 35.55 °N, 82.98 °W | Updated 14 seconds ago

Overcast
Overcast
67.8 °F
Feels Like 67.8 °F
N
0.0
Wind Variable Wind from ENE
Gusts 0.0 mph

Today
High -- | Low -- °F
--% Chance of Precip.
Yesterday
High -- | Low -- °F
Precip. -- in
6:18 AM 8:39 PM
Waxing Gibbous, 84% visible
Pressure 30.25 in
Visibility 10.0 miles
Clouds Mostly Cloudy 1400 ft
Overcast 2700 ft
Dew Point 64 °F
Humidity 88%
Rainfall 0.00 in
Snow Depth Not available.
UV 2 out of 12
Pollen 6.70 out of 12
Air Quality Not available.
Flu Activity No Activity
METAR KAVL 291354Z 19005KT 10SM BKN014 OVC027 21/17 A3031 RMK AO2 SLP242 T02110172

More Conditions Fewer Conditions

Pressure 30.25 in
Visibility 10.0 miles
Clouds Mostly Cloudy 1400 ft
Overcast 2700 ft
Dew Point 64 °F
Humidity 88%
Rainfall 0.00 in
Snow Depth Not available.
UV 2 out of 12
Pollen 6.70 out of 12
Air Quality Not available.
Flu Activity No Activity
METAR KAVL 291354Z 19005KT 10SM BKN014 OVC027 21/17 A3031 RMK AO2 SLP242 T02110172

More Conditions Fewer Conditions

10-Day Weather Forecast

Almanac

Astronomy

May. 29, 2015 Rise Set
Actual Time
Civil Twilight
Nautical Twilight
Astronomical Twilight
Moon
Length of Visible Light
Length of Day
Tomorrow will be .
, % of the Moon is Illuminated

Today's Extremes

State Highs State Lows

Community

WunderPhotos

Upload Photos

1,825,288 photos uploaded!

WunderBlogs® & News

Nearby

Air Quality

  Air Quality AQ Index Pollutant
Not available.

Snow Depth

Station Depth Elevation

Earthquake Activity

City Distance Mag. Time & Date
Minimum magnitude displayed is 2.5.

Coastal Water Temperatures

Place Temperature

Stations

Nearby Weather Stations

Station Location Temp. Windchill Dew Point Humidity Wind Precip. Elev Updated Type